createdAt,value
2022-12-29T00:01:14.718Z,0.00
2022-12-29T00:06:17.469Z,0.00
2022-12-29T00:11:21.464Z,0.00
2022-12-29T00:16:25.635Z,0.00
2022-12-29T00:21:46.018Z,0.00
2022-12-29T00:27:06.479Z,0.00
2022-12-29T00:32:28.249Z,0.20
2022-12-29T00:37:45.134Z,0.00
2022-12-29T00:43:06.023Z,0.00
2022-12-29T00:48:10.185Z,0.00
2022-12-29T00:53:12.992Z,0.00
2022-12-29T00:58:16.856Z,0.00
2022-12-29T01:03:22.134Z,0.00
2022-12-29T01:08:25.136Z,0.00
2022-12-29T01:13:27.931Z,0.00
2022-12-29T01:18:32.097Z,0.00
2022-12-29T01:23:35.841Z,0.00
2022-12-29T01:28:41.077Z,0.00
2022-12-29T01:33:45.316Z,0.00
2022-12-29T01:38:48.544Z,0.00
2022-12-29T01:43:52.404Z,0.00
2022-12-29T01:49:00.955Z,0.00
2022-12-29T01:54:04.796Z,0.00
2022-12-29T01:59:08.792Z,0.00
2022-12-29T02:04:13.062Z,0.00
2022-12-29T02:09:15.856Z,0.00
2022-12-29T02:14:21.214Z,0.00
2022-12-29T02:19:56.571Z,0.00
2022-12-29T02:25:40.190Z,0.00
2022-12-29T02:30:47.608Z,0.00
2022-12-29T02:35:54.698Z,0.00
2022-12-29T02:40:59.986Z,0.00
2022-12-29T02:46:06.698Z,0.00
2022-12-29T02:51:11.473Z,0.00
2022-12-29T02:56:14.261Z,0.00
2022-12-29T03:01:25.272Z,0.00
2022-12-29T03:06:33.269Z,0.00
2022-12-29T03:11:57.412Z,0.00
2022-12-29T03:17:02.598Z,0.00
2022-12-29T03:22:23.968Z,0.00
2022-12-29T03:27:35.630Z,0.00
2022-12-29T03:32:40.786Z,0.00
2022-12-29T03:37:45.069Z,0.00
2022-12-29T03:42:49.344Z,0.00
2022-12-29T03:47:53.604Z,0.00
2022-12-29T03:52:57.046Z,0.00
2022-12-29T03:57:59.978Z,0.00
2022-12-29T04:03:22.842Z,0.00
2022-12-29T04:08:26.652Z,0.00
2022-12-29T04:13:29.553Z,0.00
2022-12-29T04:18:33.960Z,0.00
2022-12-29T04:23:38.143Z,0.00
2022-12-29T04:28:43.456Z,0.00
2022-12-29T04:34:03.481Z,0.00
2022-12-29T04:39:07.231Z,0.00
2022-12-29T04:44:11.615Z,0.00
2022-12-29T04:49:18.410Z,0.00
2022-12-29T04:54:24.290Z,0.00
2022-12-29T04:59:35.105Z,0.00
2022-12-29T05:04:39.306Z,0.00
2022-12-29T05:09:42.821Z,0.00
2022-12-29T05:14:46.493Z,0.00
2022-12-29T05:19:50.631Z,0.00
2022-12-29T05:24:53.941Z,0.00
2022-12-29T05:29:57.048Z,0.00
2022-12-29T05:35:01.305Z,0.00
2022-12-29T05:40:06.672Z,0.00
2022-12-29T05:45:10.780Z,0.00
2022-12-29T05:50:28.663Z,0.00
2022-12-29T05:55:49.128Z,0.00
2022-12-29T06:00:53.432Z,0.00
2022-12-29T06:05:57.649Z,0.00
2022-12-29T06:11:00.548Z,0.00
2022-12-29T06:16:03.948Z,0.00
2022-12-29T06:21:08.978Z,0.00
2022-12-29T06:26:12.723Z,0.00
2022-12-29T06:31:15.595Z,0.00
2022-12-29T06:36:19.732Z,0.00
2022-12-29T06:41:26.993Z,0.00
2022-12-29T06:47:03.671Z,0.00
2022-12-29T06:52:12.721Z,0.00
2022-12-29T06:57:15.858Z,0.00
2022-12-29T07:02:20.635Z,0.00
2022-12-29T07:07:25.003Z,0.00
2022-12-29T07:12:27.983Z,0.00
2022-12-29T07:17:30.715Z,0.00
2022-12-29T07:22:34.798Z,0.00
2022-12-29T07:27:37.568Z,0.00
2022-12-29T07:32:40.335Z,0.00
2022-12-29T07:37:44.474Z,0.00
2022-12-29T07:42:47.246Z,0.00
2022-12-29T07:47:52.090Z,0.00
2022-12-29T07:52:57.396Z,0.00
2022-12-29T07:58:00.145Z,0.00
2022-12-29T08:03:02.913Z,0.00
2022-12-29T08:08:07.240Z,0.00
2022-12-29T08:13:10.475Z,0.00
2022-12-29T08:18:13.235Z,0.00
2022-12-29T08:23:17.458Z,1.00
2022-12-29T08:28:20.237Z,0.00
2022-12-29T08:33:23.060Z,0.00
2022-12-29T08:38:28.757Z,0.00
2022-12-29T08:43:31.606Z,0.20
2022-12-29T08:48:34.404Z,0.00
2022-12-29T08:53:38.499Z,1.00
2022-12-29T08:58:41.473Z,0.60
2022-12-29T09:09:08.566Z,0.00
2022-12-29T09:14:11.290Z,0.00
2022-12-29T09:19:14.261Z,0.00
2022-12-29T09:24:18.501Z,0.00
2022-12-29T09:29:21.363Z,0.00
2022-12-29T09:34:24.218Z,0.00
2022-12-29T09:39:28.383Z,0.00
2022-12-29T09:44:33.841Z,0.00
2022-12-29T09:49:40.794Z,0.00
2022-12-29T09:54:56.356Z,0.80
2022-12-29T10:00:05.438Z,0.00
2022-12-29T10:05:22.208Z,0.00
2022-12-29T10:10:33.383Z,0.00
2022-12-29T10:15:52.039Z,0.00
2022-12-29T10:20:56.255Z,0.00
2022-12-29T10:26:00.941Z,0.00
2022-12-29T10:31:08.913Z,0.00
2022-12-29T10:36:15.938Z,0.00
2022-12-29T10:41:22.546Z,5.40
2022-12-29T10:46:27.390Z,6.40
2022-12-29T10:51:32.235Z,2.40
2022-12-29T10:56:38.404Z,2.00
2022-12-29T11:01:43.897Z,2.00
2022-12-29T11:06:46.861Z,2.00
2022-12-29T11:11:51.105Z,1.00
2022-12-29T11:16:58.969Z,1.00
2022-12-29T11:22:14.799Z,1.00
2022-12-29T11:27:20.650Z,1.20
2022-12-29T11:32:28.913Z,1.00
2022-12-29T11:37:35.541Z,1.00
2022-12-29T11:42:41.259Z,1.00
2022-12-29T11:47:44.685Z,1.00
2022-12-29T11:52:47.582Z,1.00
2022-12-29T11:57:51.765Z,1.00
2022-12-29T12:02:57.666Z,1.20
2022-12-29T12:08:04.203Z,1.00
2022-12-29T12:13:13.502Z,0.00
2022-12-29T12:18:19.523Z,1.00
2022-12-29T12:23:29.389Z,0.40
2022-12-29T12:28:38.874Z,1.00
2022-12-29T12:33:43.918Z,1.00
2022-12-29T12:38:49.645Z,1.00
2022-12-29T12:43:55.147Z,0.40
2022-12-29T12:49:13.969Z,0.40
2022-12-29T12:54:25.888Z,1.00
2022-12-29T12:59:45.185Z,1.00
2022-12-29T13:05:06.115Z,1.00
2022-12-29T13:10:21.724Z,1.00
2022-12-29T13:15:35.992Z,1.00
2022-12-29T13:20:41.450Z,1.00
2022-12-29T13:25:46.982Z,0.00
2022-12-29T13:30:55.173Z,0.80
2022-12-29T13:36:01.384Z,1.00
2022-12-29T13:41:06.059Z,0.00
2022-12-29T13:46:12.124Z,0.20
2022-12-29T13:51:15.271Z,0.80
2022-12-29T13:56:21.500Z,0.60
2022-12-29T14:01:29.425Z,0.60
2022-12-29T14:06:32.678Z,0.60
2022-12-29T14:11:36.709Z,0.00
2022-12-29T14:16:42.042Z,0.60
2022-12-29T14:21:52.653Z,0.40
2022-12-29T14:26:55.447Z,0.00
2022-12-29T14:31:59.688Z,0.00
2022-12-29T14:37:02.817Z,0.00
2022-12-29T14:42:06.537Z,0.00
2022-12-29T14:47:10.804Z,0.80
2022-12-29T14:52:17.251Z,0.20
2022-12-29T14:57:35.544Z,0.00
2022-12-29T15:02:41.971Z,0.00
2022-12-29T15:07:44.863Z,0.20
2022-12-29T15:12:49.691Z,0.00
2022-12-29T15:17:53.966Z,0.00
2022-12-29T15:22:58.296Z,0.00
2022-12-29T15:28:03.204Z,0.00
2022-12-29T15:33:19.460Z,0.80
2022-12-29T15:38:31.144Z,0.00
2022-12-29T15:43:46.892Z,0.00
2022-12-29T15:48:51.400Z,0.00
2022-12-29T15:53:54.560Z,0.00
2022-12-29T15:58:57.312Z,0.00
2022-12-29T16:04:01.551Z,0.00
2022-12-29T16:09:05.545Z,0.00
2022-12-29T16:14:09.751Z,0.20
2022-12-29T16:19:15.418Z,0.00
2022-12-29T16:24:20.171Z,0.00
2022-12-29T16:29:23.153Z,0.00
2022-12-29T16:34:28.776Z,0.00
2022-12-29T16:39:38.013Z,0.00
2022-12-29T16:44:40.852Z,0.00
2022-12-29T16:49:47.057Z,0.00
2022-12-29T16:54:52.089Z,0.00
2022-12-29T16:59:56.265Z,0.00
2022-12-29T17:05:00.383Z,0.00
2022-12-29T17:10:03.227Z,0.00
2022-12-29T17:15:09.230Z,0.00
2022-12-29T17:20:17.231Z,0.00
2022-12-29T17:25:21.010Z,0.00
2022-12-29T17:30:29.677Z,0.00
2022-12-29T17:35:37.358Z,0.00
2022-12-29T17:40:40.282Z,0.00
2022-12-29T17:45:43.331Z,0.00
2022-12-29T17:50:47.764Z,0.00
2022-12-29T17:55:50.507Z,0.00
2022-12-29T18:00:54.831Z,0.00
2022-12-29T18:05:59.223Z,0.00
2022-12-29T18:11:02.120Z,0.00
2022-12-29T18:16:05.622Z,0.00
2022-12-29T18:21:12.769Z,0.00
2022-12-29T18:26:20.885Z,0.00
2022-12-29T18:31:29.209Z,0.00
2022-12-29T18:36:33.413Z,0.00
2022-12-29T18:41:36.195Z,0.00
2022-12-29T18:46:40.474Z,0.00
2022-12-29T18:51:44.650Z,0.00
2022-12-29T18:56:47.420Z,0.00
2022-12-29T19:01:50.285Z,0.00
2022-12-29T19:06:54.461Z,0.00
2022-12-29T19:11:57.247Z,0.00
2022-12-29T19:17:00.663Z,0.00
2022-12-29T19:22:04.772Z,0.00
2022-12-29T19:27:07.557Z,0.00
2022-12-29T19:32:10.282Z,0.00
2022-12-29T19:37:14.505Z,0.00
2022-12-29T19:42:17.326Z,0.00
2022-12-29T19:47:21.058Z,0.00
2022-12-29T19:52:26.155Z,0.00
2022-12-29T19:57:28.941Z,0.00
2022-12-29T20:02:33.901Z,0.00
2022-12-29T20:07:38.335Z,0.00
2022-12-29T20:12:41.194Z,0.00
2022-12-29T20:18:12.596Z,0.00
2022-12-29T20:23:08.209Z,0.00
2022-12-29T20:28:10.983Z,0.00
2022-12-29T20:33:13.778Z,0.00
2022-12-29T20:38:17.939Z,0.00
2022-12-29T20:43:20.739Z,0.00
2022-12-29T20:48:23.475Z,0.00
2022-12-29T20:53:27.796Z,0.00
2022-12-29T20:58:30.905Z,0.00
2022-12-29T21:03:33.781Z,0.00
2022-12-29T21:08:38.544Z,0.00
2022-12-29T21:13:41.339Z,0.00
2022-12-29T21:18:44.117Z,0.00
2022-12-29T21:23:48.413Z,0.00
2022-12-29T21:28:51.188Z,0.00
2022-12-29T21:33:54.094Z,0.00
2022-12-29T21:38:59.101Z,0.00
2022-12-29T21:44:19.250Z,0.80
2022-12-29T21:49:23.840Z,0.00
2022-12-29T21:54:46.531Z,0.00
2022-12-29T22:00:07.097Z,0.00
2022-12-29T22:05:30.275Z,0.00
2022-12-29T22:10:52.177Z,0.00
2022-12-29T22:15:55.427Z,0.00
2022-12-29T22:20:58.563Z,0.00
2022-12-29T22:26:06.703Z,0.00
2022-12-29T22:31:25.226Z,0.00
2022-12-29T22:36:29.366Z,0.00
2022-12-29T22:41:34.841Z,0.00
2022-12-29T22:46:37.681Z,0.00
2022-12-29T22:51:40.630Z,0.00
2022-12-29T22:56:44.791Z,0.00
2022-12-29T23:01:47.729Z,0.00
2022-12-29T23:06:50.696Z,0.00
2022-12-29T23:11:55.047Z,0.00
2022-12-29T23:16:58.029Z,0.00
2022-12-29T23:22:00.922Z,0.00
2022-12-29T23:27:05.261Z,0.00
2022-12-29T23:32:08.203Z,0.00
2022-12-29T23:37:11.465Z,0.00
2022-12-29T23:42:15.777Z,0.00
2022-12-29T23:47:18.871Z,0.00
2022-12-29T23:52:21.886Z,0.00
2022-12-29T23:57:26.178Z,0.00
